Bayside, NY (11359)

9:42 AM EST on February 11, 2016 (GMT -0500)
Harlem Yacht Club | | Change Station
CLOSE
Current Station
Personal Weather Station
Location: City Island, NY
Elevation: 10 ft
Nearby Weather Stations

Elev 10 ft 40.85 °N, 73.79 °W | Updated 12 minutes ago

Partly Cloudy
Partly Cloudy
24.1 °F
Feels Like 13 °F
N
12.0
Wind Variable Wind from WNW
Gusts 21.0 mph

Today
High -- | Low -- °F
--% Chance of Precip.
Yesterday
High -- | Low -- °F
Precip. -- in
Pressure 29.90 in
Visibility 10.0 miles
Clouds Few 5000 ft
Windchill 13 °F
Dew Point 6 °F
Humidity 47%
Rainfall 0.00 in
Snow Depth Not available.
6:54 AM 5:24 PM
Waxing Crescent, 12% visible
METAR KLGA 111351Z 29014G24KT 10SM FEW050 M03/M16 A2990 RMK AO2 PK WND 28028/1336 SLP125 T10331161 $
Pressure 29.90 in
Visibility 10.0 miles
Clouds Few 5000 ft
Windchill 13 °F
Dew Point 6 °F
Humidity 47%
Rainfall 0.00 in
Snow Depth Not available.
6:54 AM 5:24 PM
Waxing Crescent, 12% visible
METAR KLGA 111351Z 29014G24KT 10SM FEW050 M03/M16 A2990 RMK AO2 PK WND 28028/1336 SLP125 T10331161 $

10-Day Weather Forecast

Almanac

Astronomy

Feb. 11, 2016 Rise Set
Actual Time
Civil Twilight
Nautical Twilight
Astronomical Twilight
Moon
Length of Visible Light
Length of Day
Tomorrow will be .
, % of the Moon is Illuminated

Today's Extremes

State Highs State Lows

Community

WunderPhotos

Upload Photos

1,892,058 photos uploaded!

WunderBlog® & News

Nearby

Air Quality

  Air Quality AQ Index Pollutant
Not available.

Snow Depth

Station Depth Elevation

Earthquake Activity

City Distance Mag. Time & Date
Minimum magnitude displayed is 2.5.

Coastal Water Temperatures

Place Temperature

Stations

Nearby Weather Stations

Station Location Temp. Windchill Dew Point Humidity Wind Precip. Elev Updated Type
                   

Watches & Warnings

There are currently no watches in effect.